Time;durP1;ratioP1;P1;durP2;ratioP2;P2;SDS_P1;SDS_P2;PMS_P1;PMS_P2;Temp;Humidity;BMP_temperature;BMP_pressure;BME280_temperature;BME280_humidity;BME280_pressure;Samples;Min_cycle;Max_cycle;Signal;HPM_P1;HPM_P2
2024/02/01 00:02:06;;;;;;;5.68;1.23;;;;;;;26.93;27.10;100892.34;7398285;19;20030;-52
2024/02/01 00:04:32;;;;;;;1.45;0.85;;;;;;;27.04;27.29;100888.38;7397988;19;20006;-52
2024/02/01 00:06:58;;;;;;;0.47;0.47;;;;;;;27.09;26.84;100889.56;7398064;19;20019;-52
2024/02/01 00:09:24;;;;;;;8.93;0.60;;;;;;;27.14;26.63;100891.47;7397021;19;20021;-52
2024/02/01 00:11:50;;;;;;;6.47;1.20;;;;;;;27.83;25.94;100896.78;7401852;19;20011;-52
2024/02/01 00:14:17;;;;;;;2.33;0.52;;;;;;;27.71;26.51;100907.09;7397057;19;20033;-52
2024/02/01 00:16:43;;;;;;;2.45;0.82;;;;;;;27.50;26.25;100906.50;7396694;19;20015;-52
2024/02/01 00:19:09;;;;;;;0.63;0.35;;;;;;;27.09;26.58;100909.56;7399786;19;20479;-52
2024/02/01 00:21:35;;;;;;;6.95;0.88;;;;;;;25.84;27.46;100908.28;7401569;19;20028;-52
2024/02/01 00:24:01;;;;;;;1.67;0.47;;;;;;;26.52;27.41;100898.19;7397536;19;20014;-52
2024/02/01 00:26:27;;;;;;;9.40;1.40;;;;;;;26.66;27.31;100896.75;7397560;19;20010;-52
2024/02/01 00:28:53;;;;;;;1.33;1.25;;;;;;;26.65;27.23;100898.09;7398810;19;20010;-52
2024/02/01 00:31:19;;;;;;;4.05;1.02;;;;;;;24.72;28.62;100897.84;7400779;19;20003;-52
2024/02/01 00:33:45;;;;;;;3.05;1.05;;;;;;;24.07;29.16;100916.44;7396513;19;20351;-52
2024/02/01 00:36:12;;;;;;;0.30;0.30;;;;;;;25.20;28.44;100914.47;7396841;19;20018;-52
2024/02/01 00:38:38;;;;;;;2.38;1.35;;;;;;;25.58;27.82;100919.84;7397781;19;20009;-52
2024/02/01 00:41:05;;;;;;;0.17;0.17;;;;;;;26.16;27.33;100914.53;7397884;19;20062;-52
2024/02/01 00:43:31;;;;;;;2.50;0.68;;;;;;;27.10;26.74;100909.00;7397408;19;20024;-52
2024/02/01 00:45:58;;;;;;;13.88;1.10;;;;;;;26.68;26.89;100916.94;7395233;19;20034;-52
2024/02/01 00:48:24;;;;;;;0.43;0.43;;;;;;;27.50;26.00;100926.53;7398663;19;20021;-52
2024/02/01 00:50:50;;;;;;;3.75;0.40;;;;;;;28.41;25.62;100928.09;7399529;19;20078;-52
2024/02/01 00:53:16;;;;;;;2.00;0.65;;;;;;;27.96;25.94;100933.81;7395247;19;20074;-52
2024/02/01 00:55:43;;;;;;;0.30;0.30;;;;;;;27.60;26.22;100927.47;7395041;19;20042;-52
2024/02/01 00:58:09;;;;;;;5.38;0.50;;;;;;;27.17;25.89;100927.50;7397128;19;20028;-52
2024/02/01 01:00:35;;;;;;;1.55;0.75;;;;;;;26.70;26.50;100931.47;7397191;19;20018;-52
2024/02/01 01:03:01;;;;;;;11.93;1.08;;;;;;;28.31;25.35;100935.00;7396326;19;20010;-52
2024/02/01 01:05:27;;;;;;;3.45;0.73;;;;;;;28.70;24.83;100933.63;7397127;19;20006;-52
2024/02/01 01:07:53;;;;;;;0.45;0.17;;;;;;;28.44;25.36;100934.81;7397110;19;20022;-52
2024/02/01 01:10:19;;;;;;;1.65;0.57;;;;;;;28.34;25.21;100931.78;7396845;19;20014;-52
2024/02/01 01:12:46;;;;;;;1.00;0.63;;;;;;;27.80;25.71;100926.56;7396893;19;20040;-52
2024/02/01 01:15:12;;;;;;;0.50;0.35;;;;;;;27.61;25.81;100931.88;7392545;19;20042;-52
2024/02/01 01:17:38;;;;;;;0.15;0.15;;;;;;;27.67;26.00;100941.06;7394763;19;20010;-52
2024/02/01 01:20:05;;;;;;;0.50;0.50;;;;;;;27.96;25.89;100933.81;7394896;19;20041;-52
2024/02/01 01:22:31;;;;;;;0.35;0.35;;;;;;;28.05;25.61;100941.88;7395391;19;20491;-52
2024/02/01 01:24:57;;;;;;;0.52;0.52;;;;;;;28.11;25.10;100950.31;7395969;19;20022;-52
2024/02/01 01:27:23;;;;;;;0.70;0.50;;;;;;;28.06;25.30;100960.63;7395620;19;20007;-52
2024/02/01 01:29:49;;;;;;;1.08;0.43;;;;;;;27.73;25.45;100962.44;7397752;19;20033;-52
2024/02/01 01:32:16;;;;;;;11.27;1.05;;;;;;;24.70;28.38;100971.72;7395002;19;20014;-53
2024/02/01 01:34:42;;;;;;;0.47;0.47;;;;;;;24.63;28.53;100969.50;7394159;19;20103;-52
2024/02/01 01:37:08;;;;;;;2.22;0.25;;;;;;;21.01;31.80;100984.63;7394646;19;20015;-52
2024/02/01 01:39:34;;;;;;;0.30;0.30;;;;;;;20.33;32.70;100993.81;7395326;19;20035;-52
2024/02/01 01:42:00;;;;;;;1.70;1.60;;;;;;;21.91;31.58;100991.41;7400361;19;20021;-52
2024/02/01 01:44:26;;;;;;;1.65;0.30;;;;;;;25.55;27.78;100984.50;7394576;19;20026;-52
2024/02/01 01:46:53;;;;;;;6.03;1.02;;;;;;;25.39;27.31;100997.78;7394792;19;20028;-52
2024/02/01 01:49:20;;;;;;;1.75;0.43;;;;;;;25.87;26.99;100993.59;7397143;19;20010;-52
2024/02/01 01:51:49;;;;;;;0.93;0.73;;;;;;;23.16;29.51;101006.97;7394822;19;20043;-52
2024/02/01 01:54:17;;;;;;;2.42;1.20;;;;;;;24.00;28.88;101004.50;7394189;19;20026;-52
2024/02/01 01:56:44;;;;;;;1.23;0.73;;;;;;;22.85;29.96;101004.75;7395222;19;20017;-52
2024/02/01 01:59:12;;;;;;;0.10;0.10;;;;;;;23.72;29.23;101007.78;7393954;19;20419;-52
2024/02/01 02:01:41;;;;;;;0.63;0.63;;;;;;;23.68;29.29;101007.31;7394076;19;20014;-52
2024/02/01 02:04:07;;;;;;;1.50;0.60;;;;;;;23.87;28.63;101018.66;7394081;19;20017;-52
2024/02/01 02:06:33;;;;;;;9.93;0.77;;;;;;;20.69;31.79;101028.75;7394107;19;20055;-52
2024/02/01 02:09:00;;;;;;;0.20;0.20;;;;;;;22.56;30.15;101018.44;7393752;19;20011;-52
2024/02/01 02:11:27;;;;;;;0.88;0.82;;;;;;;19.34;33.31;101033.97;7392707;19;20010;-52
2024/02/01 02:13:53;;;;;;;0.20;0.20;;;;;;;18.15;35.21;101044.19;7393177;19;20017;-52
2024/02/01 02:16:19;;;;;;;1.85;1.00;;;;;;;19.16;33.47;101035.16;7394030;19;20033;-52
2024/02/01 02:18:45;;;;;;;0.47;0.47;;;;;;;18.85;34.36;101038.06;7395654;19;20367;-52
2024/02/01 02:21:17;;;;;;;0.73;0.25;;;;;;;19.04;33.83;101039.19;7393305;19;20020;-52
2024/02/01 02:23:49;;;;;;;4.57;2.08;;;;;;;17.52;35.82;101042.50;7393319;19;20017;-52
2024/02/01 02:26:16;;;;;;;0.30;0.30;;;;;;;17.50;35.88;101045.06;7392268;19;20018;-52
2024/02/01 02:28:42;;;;;;;0.28;0.28;;;;;;;19.39;33.73;101042.47;7394679;19;20332;-52
2024/02/01 02:31:09;;;;;;;2.75;1.85;;;;;;;19.09;33.63;101046.94;7393192;19;20038;-52
2024/02/01 02:33:35;;;;;;;0.30;0.30;;;;;;;17.66;35.55;101046.50;7393278;19;20014;-52
2024/02/01 02:36:01;;;;;;;0.35;0.35;;;;;;;16.58;37.37;101056.09;7392766;19;20018;-52
2024/02/01 02:38:27;;;;;;;4.47;1.35;;;;;;;17.17;36.68;101047.44;7392862;19;20034;-52
2024/02/01 02:40:53;;;;;;;2.10;0.65;;;;;;;18.04;35.88;101061.00;7393366;19;20010;-52
2024/02/01 02:43:20;;;;;;;8.07;0.73;;;;;;;17.88;35.71;101050.34;7393122;19;20481;-52
2024/02/01 02:45:46;;;;;;;0.20;0.20;;;;;;;17.90;35.58;101050.63;7393246;19;20006;-52
2024/02/01 02:48:12;;;;;;;0.30;0.28;;;;;;;16.99;37.13;101062.56;7393439;19;20006;-52
2024/02/01 02:50:38;;;;;;;0.20;0.20;;;;;;;17.64;36.03;101063.13;7393159;19;20014;-52
2024/02/01 02:53:04;;;;;;;0.20;0.20;;;;;;;18.08;35.80;101067.19;7394103;19;20014;-52
2024/02/01 02:55:30;;;;;;;0.20;0.20;;;;;;;19.52;33.64;101062.56;7390933;19;20074;-52
2024/02/01 02:57:56;;;;;;;0.20;0.20;;;;;;;17.11;36.46;101080.34;7392221;19;20013;-52
2024/02/01 03:00:23;;;;;;;0.52;0.52;;;;;;;16.44;37.96;101090.56;7391869;19;20015;-52
2024/02/01 03:02:49;;;;;;;0.75;0.75;;;;;;;16.96;36.69;101100.13;7391299;19;20467;-52
2024/02/01 03:05:16;;;;;;;0.15;0.15;;;;;;;16.13;38.43;101109.97;7393675;19;20015;-52
2024/02/01 03:07:45;;;;;;;2.85;0.65;;;;;;;16.71;37.47;101102.78;7391472;19;20014;-52
2024/02/01 03:10:12;;;;;;;8.07;0.85;;;;;;;17.04;36.94;101104.09;7392088;19;20014;-52
2024/02/01 03:12:40;;;;;;;0.38;0.38;;;;;;;15.80;38.43;101109.34;7392038;19;20467;-52
2024/02/01 03:15:09;;;;;;;9.82;0.60;;;;;;;15.55;39.17;101115.50;7390260;19;20070;-52
2024/02/01 03:17:37;;;;;;;0.30;0.30;;;;;;;17.77;36.50;101111.44;7393920;19;20010;-52
2024/02/01 03:20:22;;;;;;;1.05;0.82;;;;;;;18.67;35.08;101112.59;7392054;19;20019;-52
2024/02/01 03:22:54;;;;;;;1.67;0.77;;;;;;;15.85;38.50;101133.97;7391242;19;20501;-52
2024/02/01 03:25:28;;;;;;;0.22;0.22;;;;;;;15.46;39.14;101129.59;7392222;19;20014;-52
2024/02/01 03:28:04;;;;;;;16.98;2.13;;;;;;;16.30;38.09;101130.72;7391746;19;20003;-49
2024/02/01 03:30:46;;;;;;;12.48;1.17;;;;;;;16.82;37.80;101137.50;7395360;19;20034;-52
2024/02/01 03:33:13;;;;;;;4.10;0.70;;;;;;;17.54;36.87;101132.19;7391576;19;20351;-52
2024/02/01 03:35:40;;;;;;;0.20;0.20;;;;;;;15.90;38.69;101141.72;7389099;19;20364;-52
2024/02/01 03:38:06;;;;;;;0.25;0.25;;;;;;;15.40;39.24;101142.72;7390665;19;20424;-52
2024/02/01 03:40:38;;;;;;;10.43;1.40;;;;;;;15.00;40.39;101135.44;7391593;19;20019;-52
2024/02/01 03:43:04;;;;;;;3.28;0.63;;;;;;;16.00;38.86;101139.63;7396373;19;20014;-52
2024/02/01 03:45:30;;;;;;;0.90;0.47;;;;;;;17.11;37.67;101136.66;7390491;19;20014;-52
2024/02/01 03:47:56;;;;;;;0.80;0.35;;;;;;;18.87;35.38;101137.91;7392446;19;20462;-52
2024/02/01 03:50:23;;;;;;;0.20;0.20;;;;;;;21.63;32.19;101142.63;7391251;19;20019;-52
2024/02/01 03:52:49;;;;;;;0.22;0.22;;;;;;;20.97;32.85;101142.75;7390983;19;20348;-52
2024/02/01 03:55:18;;;;;;;1.38;0.60;;;;;;;19.24;34.41;101152.03;7402084;19;20010;-52
2024/02/01 03:57:45;;;;;;;0.20;0.20;;;;;;;18.30;35.33;101151.22;7398681;19;20007;-52
2024/02/01 04:00:34;;;;;;;0.40;0.40;;;;;;;18.17;35.81;101157.25;7398926;19;20039;-52
2024/02/01 04:03:03;;;;;;;0.10;0.10;;;;;;;17.61;36.13;101171.94;7396975;19;20021;-49
2024/02/01 04:05:40;;;;;;;0.15;0.15;;;;;;;19.12;34.41;101170.19;7401827;19;20018;-52
2024/02/01 04:08:07;;;;;;;1.98;0.50;;;;;;;17.46;36.30;101179.66;7397734;19;20007;-52
2024/02/01 04:10:34;;;;;;;0.77;0.68;;;;;;;15.98;38.41;101190.69;7398153;19;20007;-51
2024/02/01 04:13:07;;;;;;;12.85;0.75;;;;;;;18.32;35.41;101178.94;7398105;19;20030;-51
2024/02/01 04:15:35;;;;;;;11.60;1.50;;;;;;;19.22;34.55;101177.19;7395367;19;20363;-52
2024/02/01 04:18:03;;;;;;;3.50;1.17;;;;;;;18.48;35.51;101184.00;7400117;19;20280;-52
2024/02/01 04:20:30;;;;;;;12.80;0.98;;;;;;;20.28;33.76;101195.44;7397929;19;20014;-51
2024/02/01 04:22:57;;;;;;;0.17;0.17;;;;;;;20.57;33.37;101195.00;7397386;19;20062;-51
2024/02/01 04:25:24;;;;;;;6.07;1.02;;;;;;;19.57;33.89;101208.78;7397336;19;20015;-51
2024/02/01 04:27:50;;;;;;;0.17;0.17;;;;;;;19.18;34.50;101221.84;7400543;19;20043;-51
2024/02/01 04:30:20;;;;;;;2.10;0.55;;;;;;;19.17;34.53;101216.66;7397669;19;20014;-51
2024/02/01 04:32:47;;;;;;;0.70;0.65;;;;;;;18.99;35.01;101217.84;7396678;19;20018;-52
2024/02/01 04:35:15;;;;;;;1.60;1.13;;;;;;;16.66;37.73;101211.94;7394261;19;20018;-51
2024/02/01 04:37:42;;;;;;;1.17;0.70;;;;;;;17.96;36.52;101211.34;7399177;19;20329;-52
2024/02/01 04:40:10;;;;;;;0.50;0.50;;;;;;;19.26;34.52;101208.78;7397678;19;20010;-51
2024/02/01 04:42:37;;;;;;;4.70;1.88;;;;;;;19.20;34.52;101216.44;7397664;19;20664;-52
2024/02/01 04:45:08;;;;;;;14.40;1.25;;;;;;;19.27;34.79;101210.34;7393875;19;20014;-51
2024/02/01 04:47:35;;;;;;;1.65;0.73;;;;;;;19.21;34.56;101206.69;7395080;19;20010;-51
2024/02/01 04:50:03;;;;;;;0.20;0.20;;;;;;;19.29;34.28;101196.50;7399123;19;20014;-51
2024/02/01 04:52:30;;;;;;;0.30;0.30;;;;;;;23.18;30.61;101197.63;7397409;19;20027;-52
2024/02/01 04:54:58;;;;;;;5.20;1.15;;;;;;;23.28;30.50;101196.00;7396709;19;20014;-51
2024/02/01 04:57:24;;;;;;;0.30;0.30;;;;;;;23.09;30.50;101206.50;7397651;19;20011;-52
2024/02/01 04:59:50;;;;;;;0.20;0.20;;;;;;;21.48;31.68;101209.41;7395707;19;20010;-51
2024/02/01 05:02:17;;;;;;;0.30;0.30;;;;;;;17.74;36.03;101219.50;7399488;19;20026;-51
2024/02/01 05:04:43;;;;;;;0.88;0.80;;;;;;;18.04;36.02;101230.16;7395712;19;20019;-51
2024/02/01 05:07:10;;;;;;;1.00;0.73;;;;;;;17.41;36.89;101242.34;7396267;19;20011;-51
2024/02/01 05:09:37;;;;;;;18.00;1.00;;;;;;;17.50;36.70;101242.22;7395319;19;20007;-52
2024/02/01 05:12:06;;;;;;;9.65;0.68;;;;;;;17.06;37.48;101259.19;7396459;19;20015;-51
2024/02/01 05:14:33;;;;;;;20.17;0.57;;;;;;;17.54;36.96;101254.09;7399464;19;20022;-51
2024/02/01 05:16:59;;;;;;;2.63;1.20;;;;;;;18.40;35.93;101250.56;7396487;19;20006;-51
2024/02/01 05:19:25;;;;;;;0.15;0.15;;;;;;;18.74;35.41;101261.75;7400517;19;20015;-52
2024/02/01 05:21:55;;;;;;;0.93;0.68;;;;;;;19.58;34.48;101261.16;7396918;19;20016;-52
2024/02/01 05:24:22;;;;;;;0.73;0.73;;;;;;;19.91;34.21;101265.47;7395163;19;20014;-51
2024/02/01 05:26:51;;;;;;;0.10;0.10;;;;;;;19.61;34.23;101263.00;7399537;19;20014;-51
2024/02/01 05:29:19;;;;;;;0.20;0.20;;;;;;;18.31;35.96;101271.25;7398151;19;20011;-51
2024/02/01 05:31:48;;;;;;;0.60;0.60;;;;;;;19.12;35.09;101266.22;7395659;19;20011;-52
2024/02/01 05:34:15;;;;;;;0.63;0.63;;;;;;;19.48;34.53;101273.19;7395043;19;20011;-52
2024/02/01 05:36:52;;;;;;;0.70;0.40;;;;;;;20.52;33.39;101277.84;7395114;19;20015;-51
2024/02/01 05:39:26;;;;;;;0.20;0.20;;;;;;;21.14;32.48;101279.50;7393366;19;20070;-52
2024/02/01 05:42:06;;;;;;;2.42;0.88;;;;;;;21.13;32.95;101284.41;7394777;19;20066;-52
2024/02/01 05:44:33;;;;;;;0.40;0.40;;;;;;;21.02;32.85;101280.78;7394253;19;20070;-52
2024/02/01 05:46:59;;;;;;;4.40;0.65;;;;;;;20.30;33.80;101272.09;7395711;19;20359;-52
2024/02/01 05:49:28;;;;;;;1.75;1.25;;;;;;;20.16;34.00;101281.56;7398368;19;20010;-52
2024/02/01 05:51:59;;;;;;;0.22;0.22;;;;;;;19.98;33.76;101281.97;7395063;19;20014;-51
2024/02/01 05:54:25;;;;;;;0.77;0.77;;;;;;;19.10;34.73;101291.31;7394584;19;20017;-52
2024/02/01 05:56:52;;;;;;;2.50;1.00;;;;;;;18.11;36.27;101303.03;7393619;19;20007;-52
2024/02/01 05:59:20;;;;;;;0.10;0.10;;;;;;;17.97;36.45;101309.53;7394653;19;20034;-51
2024/02/01 06:01:47;;;;;;;0.20;0.20;;;;;;;19.29;35.14;101298.19;7395195;19;20014;-52
2024/02/01 06:04:14;;;;;;;2.58;0.60;;;;;;;18.22;35.86;101298.81;7394902;19;20447;-52
2024/02/01 06:06:45;;;;;;;2.08;0.50;;;;;;;21.97;31.87;101287.94;7394386;19;20047;-51
2024/02/01 06:09:12;;;;;;;0.20;0.20;;;;;;;23.33;30.17;101289.00;7394911;19;20014;-52
2024/02/01 06:11:42;;;;;;;2.10;0.75;;;;;;;23.76;29.63;101287.03;7393278;19;20380;-51
2024/02/01 06:14:08;;;;;;;9.40;0.88;;;;;;;23.91;29.44;101286.63;7394931;19;20082;-51
2024/02/01 06:16:34;;;;;;;0.20;0.20;;;;;;;24.02;29.24;101298.66;7390733;19;20340;-52
2024/02/01 06:19:00;;;;;;;0.40;0.40;;;;;;;24.28;29.20;101297.38;7396856;19;20010;-52
2024/02/01 06:21:27;;;;;;;0.20;0.20;;;;;;;24.16;29.11;101310.19;7393980;19;20039;-52
2024/02/01 06:23:53;;;;;;;13.32;1.88;;;;;;;24.23;28.97;101318.13;7391544;19;20026;-52
2024/02/01 06:26:25;;;;;;;2.83;0.75;;;;;;;24.21;29.03;101323.59;7396864;19;20017;-52
2024/02/01 06:28:53;;;;;;;0.20;0.20;;;;;;;24.46;28.49;101320.16;7394901;19;20463;-53
2024/02/01 06:31:19;;;;;;;24.35;0.73;;;;;;;26.06;27.75;101318.91;7393784;19;20018;-52
2024/02/01 06:33:50;;;;;;;0.47;0.38;;;;;;;25.69;27.68;101313.38;7393111;19;20013;-51
2024/02/01 06:36:19;;;;;;;1.67;0.97;;;;;;;25.95;27.13;101313.41;7396609;19;20037;-51
2024/02/01 06:41:29;;;;;;;2.60;1.40;;;;;;;27.08;26.15;101312.06;7393672;19;20010;-51
2024/02/01 06:44:31;;;;;;;0.57;0.32;;;;;;;26.82;26.57;101315.78;7393050;19;20361;-52
2024/02/01 06:49:29;;;;;;;12.13;0.95;;;;;;;26.37;26.95;101326.63;7395728;19;20014;-52
2024/02/01 06:52:02;;;;;;;;;;;;;;;26.99;26.54;101321.13;7391955;19;20380;-52
2024/02/01 06:54:39;;;;;;;0.63;0.63;;;;;;;27.31;26.23;101330.22;7390147;19;20240;-52
2024/02/01 06:57:13;;;;;;;1.75;0.70;;;;;;;27.66;25.53;101331.69;7397514;19;20014;-51
2024/02/01 07:02:35;;;;;;;0.40;0.40;;;;;;;28.01;25.52;101331.06;7396765;19;20010;-52
2024/02/01 07:05:58;;;;;;;0.52;0.52;;;;;;;28.00;25.39;101338.13;7396172;19;20346;-52
2024/02/01 07:08:02;;;;;;;1.00;1.00;;;;;;;28.16;24.81;101342.59;7393255;19;20010;-52
2024/02/01 07:10:47;;;;;;;7.22;2.35;;;;;;;28.15;25.27;101346.81;7391700;19;20024;-52
2024/02/01 07:13:44;;;;;;;2.83;1.73;;;;;;;28.11;25.03;101354.22;7395033;19;20013;-52
2024/02/01 07:16:21;;;;;;;1.45;0.77;;;;;;;28.49;24.49;101352.34;7393439;19;20357;-52
2024/02/01 07:19:09;;;;;;;0.52;0.45;;;;;;;28.67;24.87;101351.31;7393312;19;20373;-52
2024/02/01 07:21:45;;;;;;;0.50;0.47;;;;;;;28.79;24.43;101366.06;7395290;19;20025;-52
2024/02/01 07:24:37;;;;;;;0.40;0.35;;;;;;;28.65;24.42;101370.44;7395829;19;20038;-52
2024/02/01 07:57:58;;;;;;;7.88;0.80;;;;;;;29.36;23.91;101363.78;7400174;19;20027;-91
2024/02/01 08:00:28;;;;;;;17.92;0.95;;;;;;;29.33;23.57;101359.94;7399680;19;20525;-92
2024/02/01 08:03:04;;;;;;;4.32;0.75;;;;;;;29.14;23.61;101365.25;7395794;19;20412;-91
2024/02/01 08:08:17;;;;;;;0.30;0.30;;;;;;;29.43;23.70;101368.78;7400228;19;20027;-91
2024/02/01 08:10:46;;;;;;;0.38;0.30;;;;;;;29.55;23.41;101387.94;7397444;19;20042;-94
2024/02/01 08:13:12;;;;;;;0.17;0.17;;;;;;;29.60;23.35;101398.47;7397034;19;20023;-94
2024/02/01 08:15:42;;;;;;;1.58;0.95;;;;;;;29.69;23.50;101402.88;7399420;19;20016;-92
2024/02/01 08:18:09;;;;;;;0.10;0.10;;;;;;;29.77;23.09;101403.69;7401574;19;20014;-91
2024/02/01 08:20:39;;;;;;;5.40;0.55;;;;;;;29.81;23.31;101404.84;7401780;19;20015;-91
2024/02/01 08:23:07;;;;;;;0.47;0.47;;;;;;;29.82;23.21;101397.72;7398965;19;20034;-94
2024/02/01 08:25:33;;;;;;;0.43;0.43;;;;;;;29.67;23.30;101399.81;7399246;19;20038;-92
2024/02/01 08:28:00;;;;;;;1.23;0.65;;;;;;;29.50;23.72;101402.50;7399637;19;20028;-92
2024/02/01 08:30:30;;;;;;;2.05;0.80;;;;;;;29.41;23.55;101406.66;7399134;19;20032;-91
2024/02/01 08:33:03;;;;;;;1.95;1.33;;;;;;;29.33;23.69;101411.63;7399372;19;20023;-90
2024/02/01 08:35:36;;;;;;;0.93;0.85;;;;;;;29.36;23.72;101424.84;7397011;19;20006;-93
2024/02/01 08:38:04;;;;;;;10.00;1.85;;;;;;;29.69;23.55;101417.25;7398323;19;20369;-93
2024/02/01 08:40:30;;;;;;;7.90;0.52;;;;;;;29.80;23.40;101419.78;7400213;19;20039;-94
2024/02/01 08:43:00;;;;;;;7.70;1.45;;;;;;;29.75;23.77;101427.25;7400629;19;20922;-92
2024/02/01 08:45:28;;;;;;;3.92;0.73;;;;;;;29.74;23.31;101417.09;7398625;19;20018;-91
2024/02/01 08:48:02;;;;;;;0.52;0.52;;;;;;;29.95;23.51;101417.66;7399622;19;20029;-93
2024/02/01 08:50:30;;;;;;;0.73;0.57;;;;;;;30.01;23.51;101410.97;7396713;19;20029;-90
2024/02/01 08:52:56;;;;;;;0.45;0.45;;;;;;;30.03;23.13;101416.91;7394214;19;20341;-91
2024/02/01 08:55:22;;;;;;;1.30;1.05;;;;;;;29.92;23.14;101420.94;7395766;19;20079;-91
2024/02/01 08:57:49;;;;;;;0.68;0.50;;;;;;;30.16;22.98;101422.44;7394535;19;20030;-91
2024/02/01 09:00:21;;;;;;;4.57;0.60;;;;;;;30.13;23.29;101424.34;7395342;19;20018;-90
2024/02/01 09:03:03;;;;;;;0.70;0.70;;;;;;;30.35;23.11;101423.59;7394276;19;20472;-91
2024/02/01 09:05:40;;;;;;;8.82;0.80;;;;;;;30.56;22.84;101429.09;7397928;19;20014;-91
2024/02/01 09:08:08;;;;;;;0.30;0.30;;;;;;;30.90;22.71;101414.28;7393723;19;20018;-91
2024/02/01 09:10:35;;;;;;;1.05;0.95;;;;;;;31.00;22.47;101430.34;7394254;19;20030;-91
2024/02/01 09:13:02;;;;;;;0.40;0.25;;;;;;;31.05;22.92;101420.75;7394237;19;20021;-91
2024/02/01 09:15:31;;;;;;;0.17;0.17;;;;;;;31.03;22.93;101414.81;7394427;19;20015;-91
2024/02/01 09:17:57;;;;;;;0.22;0.22;;;;;;;31.08;22.75;101419.56;7392714;19;20018;-91
2024/02/01 09:20:25;;;;;;;0.22;0.22;;;;;;;31.04;22.77;101410.56;7393518;19;20007;-91
2024/02/01 09:22:53;;;;;;;1.50;1.40;;;;;;;31.04;22.92;101412.66;7393344;19;20022;-90
2024/02/01 09:25:20;;;;;;;0.77;0.77;;;;;;;31.09;22.91;101420.31;7395200;19;20014;-91
2024/02/01 09:27:51;;;;;;;0.85;0.82;;;;;;;31.03;22.87;101416.91;7394383;19;20085;-91
2024/02/01 09:30:19;;;;;;;0.52;0.52;;;;;;;30.87;22.98;101427.72;7397210;19;20025;-91
2024/02/01 09:32:55;;;;;;;0.57;0.50;;;;;;;30.97;23.05;101425.75;7393647;19;20484;-91
2024/02/01 09:35:23;;;;;;;0.40;0.40;;;;;;;30.98;23.35;101427.28;7393580;19;20111;-91
2024/02/01 09:37:53;;;;;;;0.52;0.52;;;;;;;31.10;23.11;101428.38;7392270;19;20014;-91
2024/02/01 09:40:20;;;;;;;0.28;0.28;;;;;;;31.68;22.73;101440.75;7392918;19;20353;-90
2024/02/01 09:42:49;;;;;;;0.20;0.20;;;;;;;31.65;22.76;101450.56;7393034;19;20015;-90
2024/02/01 09:45:18;;;;;;;1.38;0.77;;;;;;;32.12;22.57;101445.41;7394691;19;20018;-90
2024/02/01 09:47:46;;;;;;;1.05;0.30;;;;;;;32.45;22.58;101440.31;7394168;19;20358;-91
2024/02/01 09:50:20;;;;;;;3.33;0.50;;;;;;;32.72;22.55;101440.44;7391315;19;20391;-90
2024/02/01 09:52:51;;;;;;;0.20;0.20;;;;;;;32.80;22.44;101444.75;7393583;19;20082;-93
2024/02/01 09:55:20;;;;;;;0.32;0.32;;;;;;;33.10;22.48;101448.66;7390332;19;20023;-92
2024/02/01 09:57:53;;;;;;;1.17;1.08;;;;;;;33.37;21.94;101443.69;7395449;19;20014;-91
2024/02/01 10:00:25;;;;;;;0.15;0.10;;;;;;;33.24;21.99;101446.94;7392976;19;20029;-91
2024/02/01 10:02:56;;;;;;;5.50;0.40;;;;;;;33.39;22.14;101452.50;7393972;19;20022;-92
2024/02/01 10:05:23;;;;;;;0.20;0.20;;;;;;;33.64;21.92;101461.78;7392630;19;20021;-91
2024/02/01 10:07:57;;;;;;;0.50;0.50;;;;;;;33.60;22.20;101461.47;7393359;19;20042;-91
2024/02/01 10:10:23;;;;;;;2.35;0.68;;;;;;;33.62;22.08;101450.06;7394563;19;20019;-92
2024/02/01 10:12:58;;;;;;;0.77;0.68;;;;;;;33.75;22.23;101461.25;7391568;19;20006;-92
2024/02/01 10:15:30;;;;;;;0.30;0.30;;;;;;;33.84;22.57;101463.41;7390977;19;20022;-95
2024/02/01 10:17:58;;;;;;;0.40;0.40;;;;;;;33.91;22.41;101465.44;7392924;19;20025;-92
2024/02/01 10:20:36;;;;;;;2.55;0.45;;;;;;;33.95;22.29;101471.53;7395220;19;20018;-92
2024/02/01 10:23:10;;;;;;;0.95;0.43;;;;;;;34.09;22.32;101477.69;7393028;19;20019;-92
2024/02/01 10:25:43;;;;;;;0.10;0.10;;;;;;;34.32;22.24;101473.06;7393060;19;20078;-92
2024/02/01 10:28:11;;;;;;;0.50;0.43;;;;;;;34.48;22.27;101461.94;7391157;19;20346;-92
2024/02/01 10:30:42;;;;;;;1.75;0.17;;;;;;;34.49;21.80;101462.72;7396641;19;20021;-92
2024/02/01 10:33:11;;;;;;;1.27;0.57;;;;;;;34.45;21.80;101459.50;7397327;19;20472;-93
2024/02/01 10:35:38;;;;;;;0.10;0.10;;;;;;;33.92;22.42;101464.06;7386602;19;20018;-92
2024/02/01 10:38:12;;;;;;;11.70;0.63;;;;;;;33.33;22.74;101478.00;7387530;19;20120;-93
2024/02/01 10:40:52;;;;;;;0.52;0.52;;;;;;;33.35;22.76;101476.03;7387314;19;20532;-93
2024/02/01 10:43:25;;;;;;;3.63;1.42;;;;;;;33.54;22.67;101476.19;7385619;19;20078;-93
2024/02/01 10:46:05;;;;;;;0.10;0.10;;;;;;;33.87;22.30;101487.47;7389016;19;20022;-93
2024/02/01 10:48:41;;;;;;;5.88;0.73;;;;;;;33.91;22.41;101484.91;7391551;19;20524;-93
2024/02/01 10:51:11;;;;;;;10.13;0.77;;;;;;;34.06;22.37;101485.44;7391178;19;20026;-93
2024/02/01 10:53:45;;;;;;;0.40;0.40;;;;;;;33.89;22.16;101493.41;7390856;19;20022;-93
2024/02/01 10:56:16;;;;;;;9.65;1.13;;;;;;;33.96;22.27;101492.53;7395457;19;20497;-92
2024/02/01 10:58:48;;;;;;;3.83;0.95;;;;;;;34.37;21.78;101496.50;7391796;19;20015;-93
2024/02/01 11:01:16;;;;;;;5.53;1.13;;;;;;;34.61;22.05;101483.94;7390601;19;20018;-93
2024/02/01 11:03:47;;;;;;;6.82;0.80;;;;;;;34.85;21.75;101500.25;7396706;19;20358;-93
2024/02/01 11:06:15;;;;;;;7.82;1.05;;;;;;;34.87;21.71;101497.53;7402377;19;20102;-92
2024/02/01 11:08:41;;;;;;;1.60;1.35;;;;;;;34.79;21.90;101494.00;7399002;19;20015;-94
2024/02/01 11:11:16;;;;;;;20.30;2.13;;;;;;;34.84;21.75;101510.31;7399069;19;20011;-96
2024/02/01 11:13:48;;;;;;;0.55;0.55;;;;;;;34.81;21.59;101511.53;7400712;19;20027;-50
2024/02/01 11:16:16;;;;;;;0.32;0.32;;;;;;;34.70;21.90;101500.53;7401429;19;20496;-53
2024/02/01 11:18:54;;;;;;;11.02;1.70;;;;;;;34.70;21.67;101507.09;7403553;19;20062;-53
2024/02/01 11:21:28;;;;;;;9.45;2.08;;;;;;;35.03;21.37;101505.34;7400692;19;20044;-53
2024/02/01 11:24:04;;;;;;;6.85;1.15;;;;;;;35.21;21.45;101500.16;7400819;19;20062;-52
2024/02/01 11:26:40;;;;;;;9.73;1.05;;;;;;;35.42;21.31;101494.47;7400802;19;20031;-52
2024/02/01 11:29:08;;;;;;;0.43;0.43;;;;;;;34.95;21.39;101492.34;7400829;19;20102;-52
2024/02/01 11:31:43;;;;;;;1.75;0.68;;;;;;;34.54;21.33;101505.09;7400395;19;20014;-52
2024/02/01 11:34:10;;;;;;;4.22;1.55;;;;;;;34.83;21.27;101505.88;7399473;19;20040;-52
2024/02/01 11:36:37;;;;;;;4.18;0.90;;;;;;;34.95;21.38;101503.94;7400380;19;20043;-52
2024/02/01 11:39:03;;;;;;;2.55;1.15;;;;;;;35.19;21.24;101499.22;7400348;19;20485;-52
2024/02/01 11:41:31;;;;;;;0.20;0.20;;;;;;;35.36;21.10;101491.13;7399678;19;20035;-52
2024/02/01 11:44:00;;;;;;;0.17;0.15;;;;;;;35.32;21.30;101479.25;7399397;19;20370;-53
2024/02/01 11:46:26;;;;;;;0.30;0.30;;;;;;;35.39;21.35;101484.09;7400329;19;20451;-52
2024/02/01 11:48:53;;;;;;;2.00;0.45;;;;;;;35.30;20.96;101499.38;7402181;19;20023;-52
2024/02/01 11:51:19;;;;;;;1.20;0.40;;;;;;;35.16;21.38;101483.81;7399219;19;20021;-52
2024/02/01 11:53:45;;;;;;;1.85;1.25;;;;;;;35.14;21.62;101492.38;7398936;19;20015;-52
2024/02/01 11:56:12;;;;;;;17.75;0.98;;;;;;;35.24;21.26;101483.69;7396968;19;20014;-52
2024/02/01 11:58:38;;;;;;;1.80;0.57;;;;;;;35.28;21.43;101492.66;7398447;19;20022;-52
2024/02/01 12:01:04;;;;;;;0.20;0.10;;;;;;;35.22;21.11;101484.28;7398711;19;20017;-52
2024/02/01 12:03:32;;;;;;;2.30;0.43;;;;;;;35.15;21.41;101470.69;7398691;19;20546;-52
2024/02/01 12:05:59;;;;;;;2.22;0.73;;;;;;;35.29;21.43;101457.28;7398747;19;20014;-52
2024/02/01 12:08:26;;;;;;;2.15;0.28;;;;;;;35.35;21.23;101451.91;7398516;19;20014;-52
2024/02/01 12:10:52;;;;;;;5.55;1.05;;;;;;;35.32;21.25;101450.25;7398964;19;20066;-52
2024/02/01 12:13:19;;;;;;;11.77;1.05;;;;;;;35.31;21.40;101437.13;7396984;19;20038;-52
2024/02/01 12:15:48;;;;;;;1.05;0.75;;;;;;;35.39;21.20;101431.19;7396370;19;20111;-53